sensor_id;sensor_type;location;lat;lon;timestamp;P1;durP1;ratioP1;P2;durP2;ratioP2
45863;SDS011;31579;52.354;16.974;2023-05-20T00:02:39;20.50;;;10.80;;
45863;SDS011;31579;52.354;16.974;2023-05-20T00:07:39;20.50;;;10.80;;
45863;SDS011;31579;52.354;16.974;2023-05-20T00:12:39;14.50;;;9.20;;
45863;SDS011;31579;52.354;16.974;2023-05-20T00:17:39;14.50;;;9.20;;
45863;SDS011;31579;52.354;16.974;2023-05-20T00:22:39;16.90;;;9.70;;
45863;SDS011;31579;52.354;16.974;2023-05-20T00:27:41;16.90;;;9.70;;
45863;SDS011;31579;52.354;16.974;2023-05-20T00:32:39;18.80;;;10.30;;
45863;SDS011;31579;52.354;16.974;2023-05-20T00:37:39;18.80;;;10.30;;
45863;SDS011;31579;52.354;16.974;2023-05-20T00:42:39;17.60;;;9.80;;
45863;SDS011;31579;52.354;16.974;2023-05-20T00:47:39;17.60;;;9.80;;
45863;SDS011;31579;52.354;16.974;2023-05-20T00:55:04;17.60;;;9.80;;
45863;SDS011;31579;52.354;16.974;2023-05-20T01:00:04;17.60;;;9.80;;
45863;SDS011;31579;52.354;16.974;2023-05-20T01:05:04;16.70;;;8.90;;
45863;SDS011;31579;52.354;16.974;2023-05-20T01:10:04;16.70;;;8.90;;
45863;SDS011;31579;52.354;16.974;2023-05-20T01:15:08;14.60;;;8.00;;
45863;SDS011;31579;52.354;16.974;2023-05-20T01:20:08;14.60;;;8.00;;
45863;SDS011;31579;52.354;16.974;2023-05-20T01:25:04;12.70;;;8.00;;
45863;SDS011;31579;52.354;16.974;2023-05-20T01:30:04;12.70;;;8.00;;
45863;SDS011;31579;52.354;16.974;2023-05-20T01:35:05;14.60;;;7.60;;
45863;SDS011;31579;52.354;16.974;2023-05-20T01:40:05;14.60;;;7.60;;
45863;SDS011;31579;52.354;16.974;2023-05-20T01:45:04;14.40;;;7.60;;
45863;SDS011;31579;52.354;16.974;2023-05-20T01:50:04;14.40;;;7.60;;
45863;SDS011;31579;52.354;16.974;2023-05-20T01:55:04;16.20;;;7.60;;
45863;SDS011;31579;52.354;16.974;2023-05-20T02:00:04;16.20;;;7.60;;
45863;SDS011;31579;52.354;16.974;2023-05-20T02:05:04;13.00;;;7.20;;
45863;SDS011;31579;52.354;16.974;2023-05-20T02:10:04;13.00;;;7.20;;
45863;SDS011;31579;52.354;16.974;2023-05-20T02:15:04;15.10;;;7.30;;
45863;SDS011;31579;52.354;16.974;2023-05-20T02:20:05;15.10;;;7.30;;
45863;SDS011;31579;52.354;16.974;2023-05-20T02:22:00;10.00;;;6.60;;
45863;SDS011;31579;52.354;16.974;2023-05-20T02:26:58;10.00;;;6.60;;
45863;SDS011;31579;52.354;16.974;2023-05-20T02:31:58;11.90;;;6.20;;
45863;SDS011;31579;52.354;16.974;2023-05-20T02:36:58;11.90;;;6.20;;
45863;SDS011;31579;52.354;16.974;2023-05-20T02:41:58;9.40;;;5.80;;
45863;SDS011;31579;52.354;16.974;2023-05-20T02:46:58;9.40;;;5.80;;
45863;SDS011;31579;52.354;16.974;2023-05-20T02:52:01;12.00;;;6.20;;
45863;SDS011;31579;52.354;16.974;2023-05-20T02:56:58;12.00;;;6.20;;
45863;SDS011;31579;52.354;16.974;2023-05-20T03:01:58;12.10;;;6.20;;
45863;SDS011;31579;52.354;16.974;2023-05-20T03:06:58;12.10;;;6.20;;
45863;SDS011;31579;52.354;16.974;2023-05-20T03:11:58;11.20;;;6.20;;
45863;SDS011;31579;52.354;16.974;2023-05-20T03:16:58;11.20;;;6.20;;
45863;SDS011;31579;52.354;16.974;2023-05-20T03:21:58;12.70;;;6.40;;
45863;SDS011;31579;52.354;16.974;2023-05-20T03:26:58;12.70;;;6.40;;
45863;SDS011;31579;52.354;16.974;2023-05-20T03:29:13;12.70;;;6.40;;
45863;SDS011;31579;52.354;16.974;2023-05-20T03:34:11;12.10;;;6.80;;
45863;SDS011;31579;52.354;16.974;2023-05-20T03:39:11;12.10;;;6.80;;
45863;SDS011;31579;52.354;16.974;2023-05-20T03:44:11;15.30;;;6.80;;
45863;SDS011;31579;52.354;16.974;2023-05-20T03:49:11;15.30;;;6.80;;
45863;SDS011;31579;52.354;16.974;2023-05-20T03:54:11;11.80;;;7.00;;
45863;SDS011;31579;52.354;16.974;2023-05-20T03:59:14;11.80;;;7.00;;
45863;SDS011;31579;52.354;16.974;2023-05-20T04:04:12;13.10;;;7.00;;
45863;SDS011;31579;52.354;16.974;2023-05-20T04:09:12;13.10;;;7.00;;
45863;SDS011;31579;52.354;16.974;2023-05-20T04:14:12;12.30;;;7.30;;
45863;SDS011;31579;52.354;16.974;2023-05-20T04:19:12;12.30;;;7.30;;
45863;SDS011;31579;52.354;16.974;2023-05-20T04:24:12;10.90;;;7.10;;
45863;SDS011;31579;52.354;16.974;2023-05-20T04:29:13;10.90;;;7.10;;
45863;SDS011;31579;52.354;16.974;2023-05-20T04:34:12;13.60;;;6.90;;
45863;SDS011;31579;52.354;16.974;2023-05-20T04:39:11;13.60;;;6.90;;
45863;SDS011;31579;52.354;16.974;2023-05-20T04:44:11;12.20;;;6.70;;
45863;SDS011;31579;52.354;16.974;2023-05-20T04:49:11;12.20;;;6.70;;
45863;SDS011;31579;52.354;16.974;2023-05-20T04:54:11;12.20;;;7.20;;
45863;SDS011;31579;52.354;16.974;2023-05-20T04:57:10;12.20;;;7.20;;
45863;SDS011;31579;52.354;16.974;2023-05-20T05:02:09;12.00;;;7.10;;
45863;SDS011;31579;52.354;16.974;2023-05-20T05:07:09;12.00;;;7.10;;
45863;SDS011;31579;52.354;16.974;2023-05-20T05:12:08;13.20;;;6.90;;
45863;SDS011;31579;52.354;16.974;2023-05-20T05:17:08;13.20;;;6.90;;
45863;SDS011;31579;52.354;16.974;2023-05-20T05:22:08;11.60;;;7.10;;
45863;SDS011;31579;52.354;16.974;2023-05-20T05:27:09;11.60;;;7.10;;
45863;SDS011;31579;52.354;16.974;2023-05-20T05:32:08;12.30;;;7.40;;
45863;SDS011;31579;52.354;16.974;2023-05-20T05:37:08;12.30;;;7.40;;
45863;SDS011;31579;52.354;16.974;2023-05-20T05:42:08;14.20;;;8.50;;
45863;SDS011;31579;52.354;16.974;2023-05-20T05:47:08;14.20;;;8.50;;
45863;SDS011;31579;52.354;16.974;2023-05-20T05:52:08;12.20;;;7.70;;
45863;SDS011;31579;52.354;16.974;2023-05-20T05:57:08;12.20;;;7.70;;
45863;SDS011;31579;52.354;16.974;2023-05-20T06:02:09;14.70;;;8.60;;
45863;SDS011;31579;52.354;16.974;2023-05-20T06:07:09;14.70;;;8.60;;
45863;SDS011;31579;52.354;16.974;2023-05-20T06:12:09;14.70;;;8.50;;
45863;SDS011;31579;52.354;16.974;2023-05-20T06:17:08;14.70;;;8.50;;
45863;SDS011;31579;52.354;16.974;2023-05-20T06:22:08;15.50;;;8.40;;
45863;SDS011;31579;52.354;16.974;2023-05-20T06:27:09;15.50;;;8.40;;
45863;SDS011;31579;52.354;16.974;2023-05-20T06:32:09;15.00;;;8.60;;
45863;SDS011;31579;52.354;16.974;2023-05-20T06:37:08;15.00;;;8.60;;
45863;SDS011;31579;52.354;16.974;2023-05-20T06:42:09;13.70;;;8.10;;
45863;SDS011;31579;52.354;16.974;2023-05-20T06:47:13;13.70;;;8.10;;
45863;SDS011;31579;52.354;16.974;2023-05-20T06:52:09;14.30;;;8.30;;
45863;SDS011;31579;52.354;16.974;2023-05-20T06:57:09;14.30;;;8.30;;
45863;SDS011;31579;52.354;16.974;2023-05-20T07:02:09;15.10;;;8.80;;
45863;SDS011;31579;52.354;16.974;2023-05-20T07:07:09;15.10;;;8.80;;
45863;SDS011;31579;52.354;16.974;2023-05-20T07:12:09;15.50;;;8.30;;
45863;SDS011;31579;52.354;16.974;2023-05-20T07:17:09;15.50;;;8.30;;
45863;SDS011;31579;52.354;16.974;2023-05-20T07:22:09;14.60;;;7.90;;
45863;SDS011;31579;52.354;16.974;2023-05-20T07:27:09;14.60;;;7.90;;
45863;SDS011;31579;52.354;16.974;2023-05-20T07:32:09;13.60;;;7.60;;
45863;SDS011;31579;52.354;16.974;2023-05-20T07:37:09;13.60;;;7.60;;
45863;SDS011;31579;52.354;16.974;2023-05-20T07:38:25;13.60;;;7.60;;
45863;SDS011;31579;52.354;16.974;2023-05-20T07:43:24;11.30;;;7.70;;
45863;SDS011;31579;52.354;16.974;2023-05-20T07:48:24;11.30;;;7.70;;
45863;SDS011;31579;52.354;16.974;2023-05-20T07:53:24;13.30;;;8.00;;
45863;SDS011;31579;52.354;16.974;2023-05-20T07:58:24;13.30;;;8.00;;
45863;SDS011;31579;52.354;16.974;2023-05-20T08:03:24;18.00;;;8.90;;
45863;SDS011;31579;52.354;16.974;2023-05-20T08:08:27;18.00;;;8.90;;
45863;SDS011;31579;52.354;16.974;2023-05-20T08:09:36;18.00;;;8.90;;
45863;SDS011;31579;52.354;16.974;2023-05-20T08:14:35;13.50;;;9.00;;
45863;SDS011;31579;52.354;16.974;2023-05-20T08:19:35;13.50;;;9.00;;
45863;SDS011;31579;52.354;16.974;2023-05-20T08:20:33;13.50;;;9.00;;
45863;SDS011;31579;52.354;16.974;2023-05-20T08:25:31;13.50;;;9.00;;
45863;SDS011;31579;52.354;16.974;2023-05-20T08:30:32;13.50;;;9.00;;
45863;SDS011;31579;52.354;16.974;2023-05-20T08:35:31;18.00;;;11.00;;
45863;SDS011;31579;52.354;16.974;2023-05-20T08:40:33;18.00;;;11.00;;
45863;SDS011;31579;52.354;16.974;2023-05-20T08:45:31;18.30;;;10.80;;
45863;SDS011;31579;52.354;16.974;2023-05-20T08:50:32;18.30;;;10.80;;
45863;SDS011;31579;52.354;16.974;2023-05-20T08:55:45;17.90;;;10.50;;
45863;SDS011;31579;52.354;16.974;2023-05-20T09:00:40;18.20;;;10.30;;
45863;SDS011;31579;52.354;16.974;2023-05-20T09:05:40;18.20;;;10.30;;
45863;SDS011;31579;52.354;16.974;2023-05-20T09:10:40;17.60;;;11.10;;
45863;SDS011;31579;52.354;16.974;2023-05-20T09:15:40;17.60;;;11.10;;
45863;SDS011;31579;52.354;16.974;2023-05-20T09:20:40;19.20;;;10.90;;
45863;SDS011;31579;52.354;16.974;2023-05-20T09:25:40;19.20;;;10.90;;
45863;SDS011;31579;52.354;16.974;2023-05-20T09:30:40;15.10;;;9.70;;
45863;SDS011;31579;52.354;16.974;2023-05-20T09:35:40;15.10;;;9.70;;
45863;SDS011;31579;52.354;16.974;2023-05-20T09:40:43;17.50;;;10.40;;
45863;SDS011;31579;52.354;16.974;2023-05-20T09:45:40;17.50;;;10.40;;
45863;SDS011;31579;52.354;16.974;2023-05-20T09:50:40;17.20;;;10.90;;
45863;SDS011;31579;52.354;16.974;2023-05-20T09:55:41;17.20;;;10.90;;
45863;SDS011;31579;52.354;16.974;2023-05-20T10:00:40;18.90;;;11.40;;
45863;SDS011;31579;52.354;16.974;2023-05-20T10:05:43;18.90;;;11.40;;
45863;SDS011;31579;52.354;16.974;2023-05-20T10:13:09;18.50;;;10.80;;
45863;SDS011;31579;52.354;16.974;2023-05-20T10:27:50;16.60;;;11.10;;
45863;SDS011;31579;52.354;16.974;2023-05-20T10:37:50;16.60;;;10.50;;
45863;SDS011;31579;52.354;16.974;2023-05-20T10:42:53;16.90;;;10.80;;
45863;SDS011;31579;52.354;16.974;2023-05-20T10:44:59;16.90;;;10.80;;
45863;SDS011;31579;52.354;16.974;2023-05-20T10:49:57;16.90;;;10.80;;
45863;SDS011;31579;52.354;16.974;2023-05-20T10:54:57;19.90;;;11.30;;
45863;SDS011;31579;52.354;16.974;2023-05-20T10:59:57;19.90;;;11.30;;
45863;SDS011;31579;52.354;16.974;2023-05-20T11:04:57;14.80;;;10.40;;
45863;SDS011;31579;52.354;16.974;2023-05-20T11:09:57;14.80;;;10.40;;
45863;SDS011;31579;52.354;16.974;2023-05-20T11:10:51;17.60;;;11.20;;
45863;SDS011;31579;52.354;16.974;2023-05-20T11:15:49;17.60;;;11.20;;
45863;SDS011;31579;52.354;16.974;2023-05-20T11:20:49;14.60;;;10.60;;
45863;SDS011;31579;52.354;16.974;2023-05-20T11:25:50;14.60;;;10.60;;
45863;SDS011;31579;52.354;16.974;2023-05-20T11:30:50;15.90;;;10.50;;
45863;SDS011;31579;52.354;16.974;2023-05-20T11:35:51;15.90;;;10.50;;
45863;SDS011;31579;52.354;16.974;2023-05-20T11:40:51;15.90;;;10.20;;
45863;SDS011;31579;52.354;16.974;2023-05-20T11:50:49;15.20;;;9.60;;
45863;SDS011;31579;52.354;16.974;2023-05-20T11:55:51;15.20;;;9.60;;
45863;SDS011;31579;52.354;16.974;2023-05-20T11:59:00;15.20;;;9.60;;
45863;SDS011;31579;52.354;16.974;2023-05-20T12:03:58;16.90;;;10.20;;
45863;SDS011;31579;52.354;16.974;2023-05-20T12:09:01;16.90;;;10.20;;
45863;SDS011;31579;52.354;16.974;2023-05-20T12:13:58;15.80;;;9.40;;
45863;SDS011;31579;52.354;16.974;2023-05-20T12:18:58;15.80;;;9.40;;
45863;SDS011;31579;52.354;16.974;2023-05-20T12:23:58;13.90;;;9.40;;
45863;SDS011;31579;52.354;16.974;2023-05-20T12:29:01;13.90;;;9.40;;
45863;SDS011;31579;52.354;16.974;2023-05-20T12:33:58;13.90;;;9.30;;
45863;SDS011;31579;52.354;16.974;2023-05-20T12:38:58;13.90;;;9.30;;
45863;SDS011;31579;52.354;16.974;2023-05-20T12:43:58;15.10;;;9.90;;
45863;SDS011;31579;52.354;16.974;2023-05-20T12:48:11;15.10;;;9.90;;
45863;SDS011;31579;52.354;16.974;2023-05-20T12:53:09;15.50;;;10.70;;
45863;SDS011;31579;52.354;16.974;2023-05-20T12:58:09;15.50;;;10.70;;
45863;SDS011;31579;52.354;16.974;2023-05-20T13:03:09;18.00;;;11.40;;
45863;SDS011;31579;52.354;16.974;2023-05-20T13:08:09;18.00;;;11.40;;
45863;SDS011;31579;52.354;16.974;2023-05-20T13:13:09;17.00;;;10.60;;
45863;SDS011;31579;52.354;16.974;2023-05-20T13:18:10;17.00;;;10.60;;
45863;SDS011;31579;52.354;16.974;2023-05-20T13:23:09;18.20;;;11.50;;
45863;SDS011;31579;52.354;16.974;2023-05-20T13:28:09;18.20;;;11.50;;
45863;SDS011;31579;52.354;16.974;2023-05-20T13:33:09;14.50;;;10.60;;
45863;SDS011;31579;52.354;16.974;2023-05-20T13:38:09;14.50;;;10.60;;
45863;SDS011;31579;52.354;16.974;2023-05-20T13:43:09;13.90;;;10.60;;
45863;SDS011;31579;52.354;16.974;2023-05-20T13:48:09;13.90;;;10.60;;
45863;SDS011;31579;52.354;16.974;2023-05-20T13:53:09;18.10;;;12.60;;
45863;SDS011;31579;52.354;16.974;2023-05-20T13:54:20;18.10;;;12.60;;
45863;SDS011;31579;52.354;16.974;2023-05-20T13:59:18;18.10;;;12.60;;
45863;SDS011;31579;52.354;16.974;2023-05-20T14:04:18;19.20;;;13.20;;
45863;SDS011;31579;52.354;16.974;2023-05-20T14:09:18;19.20;;;13.20;;
45863;SDS011;31579;52.354;16.974;2023-05-20T14:10:27;18.60;;;12.90;;
45863;SDS011;31579;52.354;16.974;2023-05-20T14:15:25;18.60;;;12.90;;
45863;SDS011;31579;52.354;16.974;2023-05-20T14:20:25;18.60;;;12.90;;
45863;SDS011;31579;52.354;16.974;2023-05-20T14:25:25;19.60;;;14.50;;
45863;SDS011;31579;52.354;16.974;2023-05-20T14:30:25;19.60;;;14.50;;
45863;SDS011;31579;52.354;16.974;2023-05-20T14:35:25;21.30;;;14.60;;
45863;SDS011;31579;52.354;16.974;2023-05-20T14:40:25;21.30;;;14.60;;
45863;SDS011;31579;52.354;16.974;2023-05-20T14:40:29;21.30;;;14.60;;
45863;SDS011;31579;52.354;16.974;2023-05-20T14:45:27;20.20;;;14.10;;
45863;SDS011;31579;52.354;16.974;2023-05-20T14:50:27;20.20;;;14.10;;
45863;SDS011;31579;52.354;16.974;2023-05-20T14:55:27;21.70;;;15.40;;
45863;SDS011;31579;52.354;16.974;2023-05-20T15:00:27;21.70;;;15.40;;
45863;SDS011;31579;52.354;16.974;2023-05-20T15:05:27;19.80;;;15.00;;
45863;SDS011;31579;52.354;16.974;2023-05-20T15:10:27;19.80;;;15.00;;
45863;SDS011;31579;52.354;16.974;2023-05-20T15:15:27;20.80;;;15.30;;
45863;SDS011;31579;52.354;16.974;2023-05-20T15:20:27;20.80;;;15.30;;
45863;SDS011;31579;52.354;16.974;2023-05-20T15:25:30;19.40;;;13.90;;
45863;SDS011;31579;52.354;16.974;2023-05-20T15:30:27;19.40;;;13.90;;
45863;SDS011;31579;52.354;16.974;2023-05-20T15:35:27;18.10;;;13.50;;
45863;SDS011;31579;52.354;16.974;2023-05-20T15:40:27;18.10;;;13.50;;
45863;SDS011;31579;52.354;16.974;2023-05-20T15:45:28;19.40;;;13.80;;
45863;SDS011;31579;52.354;16.974;2023-05-20T15:50:27;19.40;;;13.80;;
45863;SDS011;31579;52.354;16.974;2023-05-20T15:55:27;19.20;;;12.80;;
45863;SDS011;31579;52.354;16.974;2023-05-20T16:00:27;19.20;;;12.80;;
45863;SDS011;31579;52.354;16.974;2023-05-20T16:05:27;19.20;;;12.90;;
45863;SDS011;31579;52.354;16.974;2023-05-20T16:08:04;19.20;;;12.90;;
45863;SDS011;31579;52.354;16.974;2023-05-20T16:13:02;15.70;;;12.80;;
45863;SDS011;31579;52.354;16.974;2023-05-20T16:18:02;15.70;;;12.80;;
45863;SDS011;31579;52.354;16.974;2023-05-20T16:23:02;17.70;;;13.40;;
45863;SDS011;31579;52.354;16.974;2023-05-20T16:28:02;17.70;;;13.40;;
45863;SDS011;31579;52.354;16.974;2023-05-20T16:33:02;19.00;;;14.00;;
45863;SDS011;31579;52.354;16.974;2023-05-20T16:38:06;19.00;;;14.00;;
45863;SDS011;31579;52.354;16.974;2023-05-20T16:43:02;18.60;;;13.80;;
45863;SDS011;31579;52.354;16.974;2023-05-20T16:48:02;18.60;;;13.80;;
45863;SDS011;31579;52.354;16.974;2023-05-20T16:53:04;22.30;;;14.80;;
45863;SDS011;31579;52.354;16.974;2023-05-20T16:58:02;22.30;;;14.80;;
45863;SDS011;31579;52.354;16.974;2023-05-20T17:03:02;24.40;;;14.40;;
45863;SDS011;31579;52.354;16.974;2023-05-20T17:08:02;24.40;;;14.40;;
45863;SDS011;31579;52.354;16.974;2023-05-20T17:13:02;21.70;;;13.70;;
45863;SDS011;31579;52.354;16.974;2023-05-20T17:18:02;21.70;;;13.70;;
45863;SDS011;31579;52.354;16.974;2023-05-20T17:23:02;23.80;;;14.10;;
45863;SDS011;31579;52.354;16.974;2023-05-20T17:28:02;23.80;;;14.10;;
45863;SDS011;31579;52.354;16.974;2023-05-20T17:28:09;23.80;;;14.10;;
45863;SDS011;31579;52.354;16.974;2023-05-20T17:33:07;18.50;;;13.40;;
45863;SDS011;31579;52.354;16.974;2023-05-20T17:38:07;18.50;;;13.40;;
45863;SDS011;31579;52.354;16.974;2023-05-20T17:43:07;19.70;;;13.00;;
45863;SDS011;31579;52.354;16.974;2023-05-20T17:48:07;19.70;;;13.00;;
45863;SDS011;31579;52.354;16.974;2023-05-20T17:53:07;22.10;;;13.70;;
45863;SDS011;31579;52.354;16.974;2023-05-20T17:58:11;22.10;;;13.70;;
45863;SDS011;31579;52.354;16.974;2023-05-20T18:03:07;20.40;;;14.20;;
45863;SDS011;31579;52.354;16.974;2023-05-20T18:08:07;20.40;;;14.20;;
45863;SDS011;31579;52.354;16.974;2023-05-20T18:13:07;18.50;;;13.10;;
45863;SDS011;31579;52.354;16.974;2023-05-20T18:18:07;18.50;;;13.10;;
45863;SDS011;31579;52.354;16.974;2023-05-20T18:23:07;26.00;;;14.90;;
45863;SDS011;31579;52.354;16.974;2023-05-20T18:28:07;26.00;;;14.90;;
45863;SDS011;31579;52.354;16.974;2023-05-20T18:33:07;22.90;;;14.10;;
45863;SDS011;31579;52.354;16.974;2023-05-20T18:38:07;22.90;;;14.10;;
45863;SDS011;31579;52.354;16.974;2023-05-20T18:43:07;23.00;;;15.10;;
45863;SDS011;31579;52.354;16.974;2023-05-20T18:48:07;23.00;;;15.10;;
45863;SDS011;31579;52.354;16.974;2023-05-20T18:53:07;25.80;;;14.80;;
45863;SDS011;31579;52.354;16.974;2023-05-20T18:58:07;25.80;;;14.80;;
45863;SDS011;31579;52.354;16.974;2023-05-20T19:03:08;25.60;;;16.20;;
45863;SDS011;31579;52.354;16.974;2023-05-20T19:08:07;25.60;;;16.20;;
45863;SDS011;31579;52.354;16.974;2023-05-20T19:13:07;21.70;;;15.60;;
45863;SDS011;31579;52.354;16.974;2023-05-20T19:18:07;21.70;;;15.60;;
45863;SDS011;31579;52.354;16.974;2023-05-20T19:23:07;24.50;;;16.40;;
45863;SDS011;31579;52.354;16.974;2023-05-20T19:28:07;24.50;;;16.40;;
45863;SDS011;31579;52.354;16.974;2023-05-20T19:33:07;22.70;;;16.80;;
45863;SDS011;31579;52.354;16.974;2023-05-20T19:38:07;22.70;;;16.80;;
45863;SDS011;31579;52.354;16.974;2023-05-20T19:39:24;22.70;;;16.80;;
45863;SDS011;31579;52.354;16.974;2023-05-20T19:44:22;22.70;;;16.70;;
45863;SDS011;31579;52.354;16.974;2023-05-20T19:49:22;22.70;;;16.70;;
45863;SDS011;31579;52.354;16.974;2023-05-20T19:54:33;24.20;;;17.40;;
45863;SDS011;31579;52.354;16.974;2023-05-20T19:59:32;24.20;;;17.40;;
45863;SDS011;31579;52.354;16.974;2023-05-20T20:04:32;25.10;;;18.30;;
45863;SDS011;31579;52.354;16.974;2023-05-20T20:09:32;25.10;;;18.30;;
45863;SDS011;31579;52.354;16.974;2023-05-20T20:14:31;23.00;;;18.10;;
45863;SDS011;31579;52.354;16.974;2023-05-20T20:17:05;23.00;;;18.10;;
45863;SDS011;31579;52.354;16.974;2023-05-20T20:22:04;30.90;;;20.30;;
45863;SDS011;31579;52.354;16.974;2023-05-20T20:27:04;30.90;;;20.30;;
45863;SDS011;31579;52.354;16.974;2023-05-20T20:32:04;27.10;;;21.20;;
45863;SDS011;31579;52.354;16.974;2023-05-20T20:37:04;27.10;;;21.20;;
45863;SDS011;31579;52.354;16.974;2023-05-20T20:42:04;34.70;;;22.50;;
45863;SDS011;31579;52.354;16.974;2023-05-20T20:47:07;34.70;;;22.50;;
45863;SDS011;31579;52.354;16.974;2023-05-20T20:52:04;28.70;;;21.50;;
45863;SDS011;31579;52.354;16.974;2023-05-20T20:57:04;28.70;;;21.50;;
45863;SDS011;31579;52.354;16.974;2023-05-20T21:02:04;31.60;;;22.00;;
45863;SDS011;31579;52.354;16.974;2023-05-20T21:07:04;31.60;;;22.00;;
45863;SDS011;31579;52.354;16.974;2023-05-20T21:12:04;32.80;;;22.80;;
45863;SDS011;31579;52.354;16.974;2023-05-20T21:17:04;32.80;;;22.80;;
45863;SDS011;31579;52.354;16.974;2023-05-20T21:22:04;29.00;;;21.10;;
45863;SDS011;31579;52.354;16.974;2023-05-20T21:27:04;29.00;;;21.10;;
45863;SDS011;31579;52.354;16.974;2023-05-20T21:32:04;30.20;;;22.80;;
45863;SDS011;31579;52.354;16.974;2023-05-20T21:37:04;30.20;;;22.80;;
45863;SDS011;31579;52.354;16.974;2023-05-20T21:42:04;33.40;;;23.00;;
45863;SDS011;31579;52.354;16.974;2023-05-20T21:47:04;33.40;;;23.00;;
45863;SDS011;31579;52.354;16.974;2023-05-20T21:52:06;35.50;;;24.80;;
45863;SDS011;31579;52.354;16.974;2023-05-20T21:57:04;35.50;;;24.80;;
45863;SDS011;31579;52.354;16.974;2023-05-20T22:02:04;31.60;;;24.30;;
45863;SDS011;31579;52.354;16.974;2023-05-20T22:07:04;31.60;;;24.30;;
45863;SDS011;31579;52.354;16.974;2023-05-20T22:12:04;34.30;;;25.10;;
45863;SDS011;31579;52.354;16.974;2023-05-20T22:17:04;34.30;;;25.10;;
45863;SDS011;31579;52.354;16.974;2023-05-20T22:22:04;31.40;;;24.80;;
45863;SDS011;31579;52.354;16.974;2023-05-20T22:27:04;31.40;;;24.80;;
45863;SDS011;31579;52.354;16.974;2023-05-20T22:29:23;31.40;;;24.80;;
45863;SDS011;31579;52.354;16.974;2023-05-20T22:34:22;32.30;;;24.70;;
45863;SDS011;31579;52.354;16.974;2023-05-20T22:39:22;32.30;;;24.70;;
45863;SDS011;31579;52.354;16.974;2023-05-20T22:44:26;33.60;;;24.90;;
45863;SDS011;31579;52.354;16.974;2023-05-20T22:49:22;33.60;;;24.90;;
45863;SDS011;31579;52.354;16.974;2023-05-20T22:54:22;33.20;;;24.60;;
45863;SDS011;31579;52.354;16.974;2023-05-20T22:55:04;33.20;;;24.60;;
45863;SDS011;31579;52.354;16.974;2023-05-20T23:00:02;33.20;;;24.60;;
45863;SDS011;31579;52.354;16.974;2023-05-20T23:05:02;32.20;;;22.50;;
45863;SDS011;31579;52.354;16.974;2023-05-20T23:10:02;32.20;;;22.50;;
45863;SDS011;31579;52.354;16.974;2023-05-20T23:15:02;29.50;;;21.60;;
45863;SDS011;31579;52.354;16.974;2023-05-20T23:20:02;29.50;;;21.60;;
45863;SDS011;31579;52.354;16.974;2023-05-20T23:25:06;30.10;;;21.50;;
45863;SDS011;31579;52.354;16.974;2023-05-20T23:30:02;30.10;;;21.50;;
45863;SDS011;31579;52.354;16.974;2023-05-20T23:35:02;26.30;;;19.80;;
45863;SDS011;31579;52.354;16.974;2023-05-20T23:40:02;26.30;;;19.80;;
45863;SDS011;31579;52.354;16.974;2023-05-20T23:45:02;27.40;;;20.80;;
45863;SDS011;31579;52.354;16.974;2023-05-20T23:50:02;27.40;;;20.80;;
45863;SDS011;31579;52.354;16.974;2023-05-20T23:55:02;29.70;;;21.70;;
